A- A+ FrançaisEnglishEspañol中国

最近的 LFBT Tarbes-Lourdes-PyrénéesEGPB SumburghEGEF Fair IsleYTWB ToowoombaYBWW Toowoomba WellcampLFPO Paris-Orly

飞行员的航空天气,使用METAR(气象机场报告)进行的飞行准备和TAF(终端机场预报:针对以下情况的短期天气预报)航空)。 以及其他资源,例如VAC(目视进近图)和NOTAM(通知飞行员)以进行预试飞行.

METAR, TAF, VAC, NOTAM Ben Slimane机场 (Maroc) / OACI GMMB/ IATA GMD

它位于附近 Ben Slimane, Ben Slimane 在 10 km, Mohammedia 在 16 km, Bouznika 在 16 km, Benslimane 在 18 km, Aïn Harrouda 在 21 km, Tit Mellil 在 27 km, Kasba Skhirat 在 27 km, Skhirat 在 27 km, Mellila 在 32 km, Sidi Ahmed el Rhandour 在 32 km,

机场的高度为 Ben Slimane机场的

191 m = 627 ft

跑道 Ben Slimane机场的

附近的机场Ben Slimane机场的

目前的天气 Ben Slimane机场的 - GMMB

faible pluie
20°C

Vent 13 km/h

可提供5天天气预报 Ben Slimane 在 10 km, Mohammedia 在 16 km, Bouznika 在 16 km, Benslimane 在 18 km, Aïn Harrouda 在 21 km, Tit Mellil 在 27 km, Kasba Skhirat 在 27 km, Skhirat 在 27 km, Mellila 在 32 km, Sidi Ahmed el Rhandour 在 32 km,

METAR Ben Slimane机场的 - GMMB

GMMB 180700Z AUTO 18007KT //// ////// 20/20 Q1015 NOSIG

Ben Slimane机场METAR解码 (Maroc)

GMMB机场发行的METAR日期2020年09月18日至07:00 GMT. 这是一个自动生成的METAR, 警告:此METAR已过期, 已于 11 天 13 小时 12 分钟.

可见度为0 km = 0 sm.

温度为20°C = 68 °F 露点为20°C = 68 °F 。 这相当于100%的相对湿度。.

QNH是1015 hPa = 29.97 inHg

的风7 kt = 13 km/h, 风向为180°.

天空晴朗

预计未来2小时内不会有重大变化

TAF Ben Slimane机场的 - GMMB

没有TAF

Ben Slimane机场的NOTAM

提供的NOTAM不能保证其时事性。 在将其用于飞行准备或在飞行期间使用之前,飞行员是唯一负责验证其有效性的人员。

没有通知

数据源